Time;durP1;ratioP1;P1;durP2;ratioP2;P2;SDS_P1;SDS_P2;PMS_P1;PMS_P2;Temp;Humidity;BMP_temperature;BMP_pressure;BME280_temperature;BME280_humidity;BME280_pressure;Samples;Min_cycle;Max_cycle;Signal;HPM_P1;HPM_P2
2020/12/22 00:01:54;;;;;;;;;;;22.90;40.30;;;;;;1505805;77;1097;-56
2020/12/22 00:03:56;;;;;;;;;;;22.80;40.20;;;;;;1507807;77;748;-55
2020/12/22 00:05:58;;;;;;;;;;;22.90;40.40;;;;;;1510900;77;731;-54
2020/12/22 00:08:00;;;;;;;;;;;22.80;40.20;;;;;;1512932;77;729;-56
2020/12/22 00:10:02;;;;;;;;;;;22.90;40.40;;;;;;1511987;77;658;-55
2020/12/22 00:12:05;;;;;;;;;;;22.90;40.40;;;;;;1502677;77;758;-55
2020/12/22 00:14:07;;;;;;;;;;;22.90;40.60;;;;;;1510527;77;892;-53
2020/12/22 00:16:09;;;;;;;;;;;22.80;40.50;;;;;;1520475;77;1951;-54
2020/12/22 00:18:11;;;;;;;;;;;22.90;40.60;;;;;;1511892;77;732;-53
2020/12/22 00:20:13;;;;;;;;;;;22.80;40.50;;;;;;1503601;77;1165;-55
2020/12/22 00:22:15;;;;;;;;;;;22.90;40.70;;;;;;1509404;77;762;-55
2020/12/22 00:24:17;;;;;;;;;;;22.80;40.50;;;;;;1504085;77;776;-54
2020/12/22 00:26:19;;;;;;;;;;;22.80;40.50;;;;;;1513009;77;688;-54
2020/12/22 00:28:21;;;;;;;;;;;22.90;40.60;;;;;;1509935;77;784;-53
2020/12/22 00:30:23;;;;;;;;;;;22.90;40.60;;;;;;1502459;77;1187;-55
2020/12/22 00:32:25;;;;;;;;;;;22.80;40.50;;;;;;1511203;77;789;-55
2020/12/22 00:34:28;;;;;;;;;;;22.90;40.70;;;;;;1514407;77;709;-55
2020/12/22 00:36:29;;;;;;;;;;;22.90;40.60;;;;;;1511801;77;1917;-54
2020/12/22 00:38:31;;;;;;;;;;;22.90;40.60;;;;;;1511033;77;821;-54
2020/12/22 00:40:33;;;;;;;;;;;22.90;40.60;;;;;;1516505;76;1157;-54
2020/12/22 00:42:35;;;;;;;;;;;22.90;40.70;;;;;;1522757;77;751;-55
2020/12/22 00:44:37;;;;;;;;;;;22.80;40.50;;;;;;1509790;77;811;-56
2020/12/22 00:46:39;;;;;;;;;;;22.80;40.50;;;;;;1504637;77;727;-55
2020/12/22 00:48:42;;;;;;;;;;;22.80;40.60;;;;;;1507149;77;758;-55
2020/12/22 00:50:44;;;;;;;;;;;22.80;40.60;;;;;;1517270;77;1929;-55
2020/12/22 00:52:46;;;;;;;;;;;22.80;40.60;;;;;;1523447;77;776;-55
2020/12/22 00:54:48;;;;;;;;;;;22.80;40.70;;;;;;1519402;75;1942;-54
2020/12/22 00:56:50;;;;;;;;;;;22.90;40.70;;;;;;1533050;77;713;-54
2020/12/22 00:58:52;;;;;;;;;;;22.80;40.70;;;;;;1505708;77;808;-53
2020/12/22 01:00:53;;;;;;;;;;;22.80;40.60;;;;;;1508576;77;1161;-54
2020/12/22 01:02:55;;;;;;;;;;;22.90;40.80;;;;;;1518974;77;734;-55
2020/12/22 01:04:57;;;;;;;;;;;22.80;40.70;;;;;;1519801;77;708;-55
2020/12/22 01:06:59;;;;;;;;;;;22.80;40.70;;;;;;1509271;77;811;-54
2020/12/22 01:09:01;;;;;;;;;;;22.70;40.70;;;;;;1507124;77;684;-55
2020/12/22 01:11:03;;;;;;;;;;;22.80;40.70;;;;;;1505908;77;1200;-54
2020/12/22 01:13:05;;;;;;;;;;;22.80;40.80;;;;;;1511074;77;765;-55
2020/12/22 01:15:07;;;;;;;;;;;22.80;40.80;;;;;;1511961;77;1945;-54
2020/12/22 01:17:08;;;;;;;;;;;22.80;40.80;;;;;;1504477;77;763;-52
2020/12/22 01:19:10;;;;;;;;;;;22.80;40.80;;;;;;1505280;77;695;-53
2020/12/22 01:21:19;;;;;;;;;;;22.80;40.80;;;;;;1511547;77;1078;-53
2020/12/22 01:23:21;;;;;;;;;;;22.80;40.80;;;;;;1500878;77;780;-58
2020/12/22 01:25:23;;;;;;;;;;;22.80;40.80;;;;;;1502737;77;777;-57
2020/12/22 01:27:25;;;;;;;;;;;22.90;41.00;;;;;;1512418;77;741;-57
2020/12/22 01:29:26;;;;;;;;;;;22.90;41.00;;;;;;1513984;77;769;-58
2020/12/22 01:31:29;;;;;;;;;;;22.80;41.00;;;;;;1514396;77;1163;-57
2020/12/22 01:33:31;;;;;;;;;;;22.80;40.90;;;;;;1512541;77;773;-59
2020/12/22 01:35:33;;;;;;;;;;;22.90;41.00;;;;;;1505091;77;1940;-57
2020/12/22 01:37:35;;;;;;;;;;;22.90;41.00;;;;;;1517853;77;786;-57
2020/12/22 01:39:36;;;;;;;;;;;22.80;40.90;;;;;;1522993;77;786;-57
2020/12/22 01:41:38;;;;;;;;;;;22.80;40.90;;;;;;1500473;77;1185;-58
2020/12/22 01:43:40;;;;;;;;;;;22.80;41.00;;;;;;1517456;77;759;-57
2020/12/22 01:45:42;;;;;;;;;;;22.80;41.20;;;;;;1499965;77;671;-56
2020/12/22 01:47:46;;;;;;;;;;;22.90;41.30;;;;;;1505860;77;752;-58
2020/12/22 01:49:47;;;;;;;;;;;22.90;41.30;;;;;;1512982;77;1816;-58
2020/12/22 01:51:49;;;;;;;;;;;22.90;41.40;;;;;;1512319;77;1134;-58
2020/12/22 01:53:51;;;;;;;;;;;22.90;41.30;;;;;;1506760;77;871;-58
2020/12/22 01:55:53;;;;;;;;;;;22.90;41.40;;;;;;1506632;77;1948;-58
2020/12/22 01:57:55;;;;;;;;;;;22.90;41.40;;;;;;1500275;77;695;-58
2020/12/22 01:59:57;;;;;;;;;;;22.90;41.40;;;;;;1506929;77;881;-60
2020/12/22 02:01:59;;;;;;;;;;;22.90;41.40;;;;;;1510684;77;1139;-60
2020/12/22 02:04:01;;;;;;;;;;;22.90;41.50;;;;;;1505703;77;737;-60
2020/12/22 02:06:03;;;;;;;;;;;22.90;41.50;;;;;;1508463;77;789;-60
2020/12/22 02:08:05;;;;;;;;;;;22.90;41.50;;;;;;1503968;77;636;-61
2020/12/22 02:10:07;;;;;;;;;;;22.90;41.50;;;;;;1498393;77;1138;-61
2020/12/22 02:12:09;;;;;;;;;;;22.90;41.50;;;;;;1512255;77;834;-59
2020/12/22 02:14:11;;;;;;;;;;;22.90;41.50;;;;;;1503244;77;658;-59
2020/12/22 02:16:13;;;;;;;;;;;22.90;41.50;;;;;;1497419;77;1938;-59
2020/12/22 02:18:14;;;;;;;;;;;22.90;41.50;;;;;;1508460;77;752;-59
2020/12/22 02:20:16;;;;;;;;;;;22.90;41.50;;;;;;1506928;77;1175;-60
2020/12/22 02:22:18;;;;;;;;;;;22.90;41.50;;;;;;1510032;77;793;-59
2020/12/22 02:24:20;;;;;;;;;;;22.90;41.50;;;;;;1508308;77;828;-59
2020/12/22 02:26:23;;;;;;;;;;;22.90;41.50;;;;;;1503279;77;778;-59
2020/12/22 02:28:24;;;;;;;;;;;22.90;41.50;;;;;;1508415;77;792;-60
2020/12/22 02:30:26;;;;;;;;;;;22.90;41.40;;;;;;1516766;77;1225;-60
2020/12/22 02:32:28;;;;;;;;;;;22.90;41.40;;;;;;1511251;77;902;-60
2020/12/22 02:34:30;;;;;;;;;;;22.90;41.40;;;;;;1508077;77;766;-59
2020/12/22 02:36:33;;;;;;;;;;;22.90;41.50;;;;;;1508241;77;1941;-59
2020/12/22 02:38:35;;;;;;;;;;;22.90;41.40;;;;;;1505435;77;723;-60
2020/12/22 02:40:37;;;;;;;;;;;22.90;41.40;;;;;;1511311;76;1191;-60
2020/12/22 02:42:39;;;;;;;;;;;22.90;41.50;;;;;;1498738;77;716;-60
2020/12/22 02:44:41;;;;;;;;;;;22.90;41.50;;;;;;1504575;77;691;-60
2020/12/22 02:46:43;;;;;;;;;;;22.90;41.40;;;;;;1506425;77;641;-59
2020/12/22 02:48:44;;;;;;;;;;;22.90;41.40;;;;;;1506746;77;776;-61
2020/12/22 02:50:46;;;;;;;;;;;22.90;41.40;;;;;;1500050;77;1181;-60
2020/12/22 02:52:48;;;;;;;;;;;22.90;41.50;;;;;;1499534;77;810;-58
2020/12/22 02:54:50;;;;;;;;;;;22.90;41.50;;;;;;1506387;77;758;-59
2020/12/22 02:56:52;;;;;;;;;;;22.90;41.50;;;;;;1503708;77;1953;-59
2020/12/22 02:58:54;;;;;;;;;;;22.90;41.50;;;;;;1500369;77;727;-61
2020/12/22 03:00:56;;;;;;;;;;;22.90;41.50;;;;;;1504257;77;1076;-60
2020/12/22 03:02:57;;;;;;;;;;;22.90;41.50;;;;;;1504536;77;698;-59
2020/12/22 03:04:59;;;;;;;;;;;22.90;41.50;;;;;;1514592;77;763;-59
2020/12/22 03:07:01;;;;;;;;;;;22.90;41.40;;;;;;1499008;77;730;-60
2020/12/22 03:09:03;;;;;;;;;;;22.90;41.50;;;;;;1502614;77;823;-58
2020/12/22 03:11:05;;;;;;;;;;;22.90;41.50;;;;;;1502668;77;1231;-58
2020/12/22 03:13:07;;;;;;;;;;;22.90;41.50;;;;;;1508755;77;705;-58
2020/12/22 03:15:09;;;;;;;;;;;22.90;41.50;;;;;;1504081;77;736;-58
2020/12/22 03:17:11;;;;;;;;;;;22.90;41.40;;;;;;1511887;77;1956;-59
2020/12/22 03:19:13;;;;;;;;;;;22.90;41.50;;;;;;1507418;77;723;-58
2020/12/22 03:21:16;;;;;;;;;;;22.90;41.40;;;;;;1507676;75;221989;-56
2020/12/22 03:23:17;;;;;;;;;;;22.90;41.50;;;;;;1531625;76;697;-57
2020/12/22 03:25:19;;;;;;;;;;;22.90;41.50;;;;;;1520139;76;704;-57
2020/12/22 03:27:21;;;;;;;;;;;22.90;41.50;;;;;;1533303;76;701;-56
2020/12/22 03:29:23;;;;;;;;;;;22.90;41.50;;;;;;1527563;76;747;-56
2020/12/22 03:31:25;;;;;;;;;;;22.90;41.60;;;;;;1520387;76;1205;-57
2020/12/22 03:33:28;;;;;;;;;;;22.90;41.60;;;;;;1528865;76;605;-57
2020/12/22 03:35:30;;;;;;;;;;;22.90;41.80;;;;;;1530285;76;770;-56
2020/12/22 03:37:32;;;;;;;;;;;22.90;41.80;;;;;;1531018;76;1948;-57
2020/12/22 03:39:33;;;;;;;;;;;22.90;41.80;;;;;;1526792;76;767;-56
2020/12/22 03:41:35;;;;;;;;;;;22.90;41.90;;;;;;1530468;76;1176;-56
2020/12/22 03:43:37;;;;;;;;;;;22.90;42.10;;;;;;1531861;76;939;-57
2020/12/22 03:45:39;;;;;;;;;;;22.90;42.10;;;;;;1528684;76;729;-57
2020/12/22 03:47:41;;;;;;;;;;;22.90;42.10;;;;;;1530054;76;713;-56
2020/12/22 03:49:43;;;;;;;;;;;22.90;42.30;;;;;;1509500;77;737;-57
2020/12/22 03:51:45;;;;;;;;;;;22.90;42.30;;;;;;1505352;77;1142;-55
2020/12/22 03:53:47;;;;;;;;;;;22.90;42.50;;;;;;1535868;75;646;-57
2020/12/22 03:55:49;;;;;;;;;;;22.90;42.60;;;;;;1506974;77;1948;-56
2020/12/22 03:57:51;;;;;;;;;;;22.80;42.60;;;;;;1508088;77;747;-56
2020/12/22 03:59:53;;;;;;;;;;;22.80;42.70;;;;;;1513306;77;771;-56
2020/12/22 04:01:55;;;;;;;;;;;22.80;42.80;;;;;;1511216;77;1078;-57
2020/12/22 04:03:56;;;;;;;;;;;22.80;42.80;;;;;;1510480;77;596;-55
2020/12/22 04:05:58;;;;;;;;;;;22.80;43.00;;;;;;1508378;76;803;-56
2020/12/22 04:08:00;;;;;;;;;;;22.80;43.10;;;;;;1515690;77;760;-56
2020/12/22 04:10:03;;;;;;;;;;;22.80;43.20;;;;;;1507510;77;724;-55
2020/12/22 04:12:05;;;;;;;;;;;22.80;43.20;;;;;;1507737;77;767;-56
2020/12/22 04:14:07;;;;;;;;;;;22.70;43.40;;;;;;1511749;77;638;-57
2020/12/22 04:16:09;;;;;;;;;;;22.80;43.40;;;;;;1500422;77;1929;-57
2020/12/22 04:18:11;;;;;;;;;;;22.80;43.50;;;;;;1525068;77;797;-57
2020/12/22 04:20:13;;;;;;;;;;;22.80;43.50;;;;;;1522488;77;1139;-57
2020/12/22 04:22:15;;;;;;;;;;;22.70;43.60;;;;;;1525086;77;808;-57
2020/12/22 04:24:17;;;;;;;;;;;22.80;43.60;;;;;;1509350;77;720;-56
2020/12/22 04:26:19;;;;;;;;;;;22.90;43.70;;;;;;1522110;77;713;-56
2020/12/22 04:28:20;;;;;;;;;;;22.80;43.60;;;;;;1517422;77;716;-55
2020/12/22 04:30:22;;;;;;;;;;;22.80;43.50;;;;;;1514067;77;1107;-57
2020/12/22 04:32:24;;;;;;;;;;;22.90;43.70;;;;;;1507004;77;794;-57
2020/12/22 04:34:26;;;;;;;;;;;22.80;43.50;;;;;;1514151;77;736;-57
2020/12/22 04:36:28;;;;;;;;;;;22.90;43.60;;;;;;1521032;77;1945;-59
2020/12/22 04:38:30;;;;;;;;;;;22.90;43.60;;;;;;1506803;77;703;-57
2020/12/22 04:40:32;;;;;;;;;;;23.00;43.60;;;;;;1518767;77;1195;-57
2020/12/22 04:42:34;;;;;;;;;;;22.90;43.70;;;;;;1521105;77;744;-57
2020/12/22 04:44:36;;;;;;;;;;;22.90;43.90;;;;;;1516499;77;791;-58
2020/12/22 04:46:38;;;;;;;;;;;22.90;43.80;;;;;;1517932;77;772;-58
2020/12/22 04:48:40;;;;;;;;;;;22.90;43.90;;;;;;1517555;77;763;-57
2020/12/22 04:50:42;;;;;;;;;;;22.90;43.90;;;;;;1506912;77;1239;-58
2020/12/22 04:52:44;;;;;;;;;;;22.90;43.90;;;;;;1512566;77;678;-57
2020/12/22 04:54:46;;;;;;;;;;;22.90;43.90;;;;;;1529544;77;793;-57
2020/12/22 04:56:47;;;;;;;;;;;22.90;43.90;;;;;;1509763;77;1948;-57
2020/12/22 04:58:49;;;;;;;;;;;23.00;43.90;;;;;;1501993;77;1023;-57
2020/12/22 05:00:51;;;;;;;;;;;22.90;43.90;;;;;;1539370;75;1184;-56
2020/12/22 05:02:53;;;;;;;;;;;23.00;43.90;;;;;;1507056;77;778;-55
2020/12/22 05:04:55;;;;;;;;;;;22.90;43.90;;;;;;1505072;77;733;-57
2020/12/22 05:06:57;;;;;;;;;;;22.90;43.80;;;;;;1540464;75;776;-57
2020/12/22 05:08:59;;;;;;;;;;;23.00;43.80;;;;;;1540098;75;709;-57
2020/12/22 05:11:00;;;;;;;;;;;23.00;43.80;;;;;;1508520;77;1153;-55
2020/12/22 05:13:03;;;;;;;;;;;23.00;43.60;;;;;;1530106;76;769;-56
2020/12/22 05:15:05;;;;;;;;;;;23.00;43.60;;;;;;1537916;76;922;-55
2020/12/22 05:17:07;;;;;;;;;;;23.10;43.60;;;;;;1526905;76;1945;-57
2020/12/22 05:19:10;;;;;;;;;;;23.10;43.60;;;;;;1533944;76;679;-57
2020/12/22 05:21:12;;;;;;;;;;;23.10;43.50;;;;;;1527489;76;1210;-54
2020/12/22 05:23:18;;;;;;;;;;;23.10;43.50;;;;;;1516358;76;768;-56
2020/12/22 05:25:21;;;;;;;;;;;23.10;43.50;;;;;;1538288;76;717;-56
2020/12/22 05:27:22;;;;;;;;;;;23.10;43.40;;;;;;1523407;76;720;-57
2020/12/22 05:29:24;;;;;;;;;;;23.10;43.50;;;;;;1523480;76;656;-59
2020/12/22 05:31:26;;;;;;;;;;;23.10;43.60;;;;;;1527448;76;1186;-56
2020/12/22 05:33:28;;;;;;;;;;;23.10;43.60;;;;;;1527693;76;734;-56
2020/12/22 05:35:32;;;;;;;;;;;23.20;43.50;;;;;;1522173;76;751;-56
2020/12/22 05:37:35;;;;;;;;;;;23.20;43.50;;;;;;1517850;76;1935;-56
2020/12/22 05:39:39;;;;;;;;;;;23.10;43.40;;;;;;1514905;77;1306;-57
2020/12/22 05:41:41;;;;;;;;;;;23.10;43.50;;;;;;1525490;76;1212;-58
2020/12/22 05:43:43;;;;;;;;;;;23.10;43.50;;;;;;1527081;76;739;-56
2020/12/22 05:45:45;;;;;;;;;;;23.10;43.50;;;;;;1512585;77;673;-55
2020/12/22 05:47:48;;;;;;;;;;;23.10;43.50;;;;;;1533426;76;679;-58
2020/12/22 05:49:51;;;;;;;;;;;23.10;43.50;;;;;;1513315;76;722;-57
2020/12/22 05:51:53;;;;;;;;;;;23.20;43.50;;;;;;1525143;76;1141;-56
2020/12/22 05:53:55;;;;;;;;;;;23.10;43.40;;;;;;1512918;77;763;-56
2020/12/22 05:55:58;;;;;;;;;;;23.20;43.40;;;;;;1512789;77;805;-57
2020/12/22 05:58:07;;;;;;;;;;;23.10;43.40;;;;;;1507754;77;1925;-56
2020/12/22 06:00:15;;;;;;;;;;;23.20;43.40;;;;;;1510917;77;1164;-57
2020/12/22 06:02:27;;;;;;;;;;;23.10;43.40;;;;;;1502099;77;670;-57
2020/12/22 06:04:28;;;;;;;;;;;23.10;43.50;;;;;;1501508;77;767;-56
2020/12/22 06:06:31;;;;;;;;;;;23.20;43.50;;;;;;1510594;77;850;-57
2020/12/22 06:08:33;;;;;;;;;;;23.20;43.60;;;;;;1564164;74;728;-57
2020/12/22 06:10:35;;;;;;;;;;;23.10;43.60;;;;;;1562215;73;1167;-60
2020/12/22 06:12:39;;;;;;;;;;;23.10;43.60;;;;;;1573593;74;712;-58
2020/12/22 06:14:43;;;;;;;;;;;23.20;43.60;;;;;;1575698;74;730;-56
2020/12/22 06:16:45;;;;;;;;;;;23.10;43.50;;;;;;1564602;74;1916;-58
2020/12/22 06:18:47;;;;;;;;;;;23.20;43.50;;;;;;1565987;74;775;-56
2020/12/22 06:20:49;;;;;;;;;;;23.10;43.50;;;;;;1567168;74;1111;-57
2020/12/22 06:22:53;;;;;;;;;;;23.20;43.50;;;;;;1567826;74;799;-56
2020/12/22 06:24:55;;;;;;;;;;;23.20;43.40;;;;;;1559639;74;2009;-59
2020/12/22 06:27:01;;;;;;;;;;;23.20;43.40;;;;;;1566283;74;725;-60
2020/12/22 06:29:03;;;;;;;;;;;23.20;43.40;;;;;;1550957;74;1056;-58
2020/12/22 06:31:15;;;;;;;;;;;23.20;43.50;;;;;;1571613;74;1175;-58
2020/12/22 06:33:23;;;;;;;;;;;23.20;43.60;;;;;;1575333;74;1654;-56
2020/12/22 06:35:30;;;;;;;;;;;23.10;43.70;;;;;;1564935;74;710;-58
2020/12/22 06:37:42;;;;;;;;;;;23.10;43.90;;;;;;1568153;74;1930;-58
2020/12/22 06:39:44;;;;;;;;;;;23.10;43.90;;;;;;1571870;74;721;-58
2020/12/22 06:41:45;;;;;;;;;;;23.10;44.10;;;;;;1567838;74;1156;-57
2020/12/22 06:43:47;;;;;;;;;;;23.00;44.00;;;;;;1565183;74;887;-57
2020/12/22 06:45:49;;;;;;;;;;;23.10;44.20;;;;;;1557745;74;682;-59
2020/12/22 06:47:51;;;;;;;;;;;23.10;44.20;;;;;;1566908;74;733;-58
2020/12/22 06:49:53;;;;;;;;;;;23.10;44.20;;;;;;1564954;74;798;-58
2020/12/22 06:51:55;;;;;;;;;;;23.10;44.20;;;;;;1568187;74;1096;-58
2020/12/22 06:53:57;;;;;;;;;;;23.10;44.30;;;;;;1563039;74;771;-56
2020/12/22 06:55:59;;;;;;;;;;;23.10;44.30;;;;;;1562776;74;727;-58
2020/12/22 06:58:01;;;;;;;;;;;23.10;44.30;;;;;;1568602;74;1935;-58
2020/12/22 07:00:03;;;;;;;;;;;23.10;44.30;;;;;;1566583;74;759;-58
2020/12/22 07:02:05;;;;;;;;;;;23.10;44.30;;;;;;1569384;74;699;-60
2020/12/22 07:04:26;;;;;;;;;;;23.10;44.20;;;;;;1556401;74;752;-56
2020/12/22 07:06:30;;;;;;;;;;;23.10;44.20;;;;;;1573346;74;1089;-56
2020/12/22 07:08:32;;;;;;;;;;;23.20;44.20;;;;;;1554036;74;1149;-56
2020/12/22 07:10:37;;;;;;;;;;;23.10;44.10;;;;;;1566364;73;1143;-56
2020/12/22 07:12:39;;;;;;;;;;;23.20;44.00;;;;;;1572702;74;675;-59
2020/12/22 07:14:43;;;;;;;;;;;23.20;44.00;;;;;;1565609;74;785;-58
2020/12/22 07:16:45;;;;;;;;;;;23.20;43.90;;;;;;1572023;74;1130;-56
2020/12/22 07:18:47;;;;;;;;;;;23.30;43.90;;;;;;1561273;74;1915;-57
2020/12/22 07:20:49;;;;;;;;;;;23.30;43.90;;;;;;1562873;74;1146;-58
2020/12/22 07:22:51;;;;;;;;;;;23.30;43.80;;;;;;1572247;74;765;-58
2020/12/22 07:24:53;;;;;;;;;;;23.30;43.80;;;;;;1569288;74;695;-57
2020/12/22 07:26:55;;;;;;;;;;;23.40;43.70;;;;;;1567744;74;683;-58
2020/12/22 07:28:57;;;;;;;;;;;23.40;43.70;;;;;;1562602;74;703;-56
2020/12/22 07:30:59;;;;;;;;;;;23.30;43.70;;;;;;1569483;73;1158;-58
2020/12/22 07:33:01;;;;;;;;;;;23.30;43.70;;;;;;1565928;74;719;-57
2020/12/22 07:35:03;;;;;;;;;;;23.30;43.60;;;;;;1571258;74;722;-57
2020/12/22 07:37:05;;;;;;;;;;;23.30;43.70;;;;;;1565944;74;636;-55
2020/12/22 07:39:12;;;;;;;;;;;23.30;43.90;;;;;;1562579;74;653;-57
2020/12/22 07:41:15;;;;;;;;;;;23.40;43.90;;;;;;1558550;74;1191;-58
2020/12/22 07:43:17;;;;;;;;;;;23.30;43.90;;;;;;1558549;74;1847;-59
2020/12/22 07:45:20;;;;;;;;;;;23.30;43.90;;;;;;1562791;74;803;-59
2020/12/22 07:47:23;;;;;;;;;;;23.40;43.90;;;;;;1571852;74;809;-58
2020/12/22 07:49:25;;;;;;;;;;;23.40;43.80;;;;;;1566616;74;1576;-56
2020/12/22 07:51:27;;;;;;;;;;;23.40;43.80;;;;;;1563919;74;1246;-57
2020/12/22 07:53:29;;;;;;;;;;;23.40;43.80;;;;;;1560580;74;791;-58
2020/12/22 07:55:37;;;;;;;;;;;23.40;43.70;;;;;;1570832;74;813;-59
2020/12/22 07:57:39;;;;;;;;;;;23.40;43.80;;;;;;1577658;74;1923;-57
2020/12/22 07:59:41;;;;;;;;;;;23.40;43.90;;;;;;1555248;74;869;-56
2020/12/22 08:01:43;;;;;;;;;;;23.40;43.80;;;;;;1572452;74;1132;-56
2020/12/22 08:03:45;;;;;;;;;;;23.30;43.80;;;;;;1579895;74;708;-57
2020/12/22 08:05:59;;;;;;;;;;;23.30;43.80;;;;;;1571864;74;703;-58
2020/12/22 08:08:01;;;;;;;;;;;23.40;43.80;;;;;;1582471;74;721;-57
2020/12/22 08:10:09;;;;;;;;;;;23.40;43.70;;;;;;1575103;74;733;-56
2020/12/22 08:12:11;;;;;;;;;;;23.30;43.70;;;;;;1584031;74;740;-56
2020/12/22 08:14:13;;;;;;;;;;;23.40;43.70;;;;;;1587106;74;710;-56
2020/12/22 08:16:15;;;;;;;;;;;23.40;43.60;;;;;;1589059;74;716;-58
2020/12/22 08:18:17;;;;;;;;;;;23.40;43.50;;;;;;1566505;74;1906;-57
2020/12/22 08:20:19;;;;;;;;;;;23.40;43.40;;;;;;1583231;74;1155;-58
2020/12/22 08:22:21;;;;;;;;;;;23.40;43.40;;;;;;1569668;74;719;-57
2020/12/22 08:24:23;;;;;;;;;;;23.40;43.30;;;;;;1565714;74;707;-58
2020/12/22 08:26:24;;;;;;;;;;;23.50;43.30;;;;;;1580430;74;792;-60
2020/12/22 08:28:27;;;;;;;;;;;23.50;43.30;;;;;;1572974;74;706;-58
2020/12/22 08:30:29;;;;;;;;;;;23.40;43.20;;;;;;1588406;73;1158;-56
2020/12/22 08:32:31;;;;;;;;;;;23.40;43.20;;;;;;1584216;74;754;-57
2020/12/22 08:34:33;;;;;;;;;;;23.40;43.20;;;;;;1593230;74;674;-57
2020/12/22 08:36:35;;;;;;;;;;;23.40;43.10;;;;;;1584496;74;710;-58
2020/12/22 08:38:36;;;;;;;;;;;23.40;43.20;;;;;;1584110;74;1925;-57
2020/12/22 08:40:38;;;;;;;;;;;23.40;43.20;;;;;;1589093;73;1222;-57
2020/12/22 08:42:41;;;;;;;;;;;23.40;43.20;;;;;;1584496;74;694;-56
2020/12/22 08:44:51;;;;;;;;;;;23.40;43.20;;;;;;1563615;75;1257;-57
2020/12/22 08:46:55;;;;;;;;;;;23.40;43.20;;;;;;1578379;74;1059;-56
2020/12/22 08:48:59;;;;;;;;;;;23.40;43.20;;;;;;1575642;74;893;-57
2020/12/22 08:51:01;;;;;;;;;;;23.30;43.10;;;;;;1578546;73;1599;-57
2020/12/22 08:53:03;;;;;;;;;;;23.40;43.20;;;;;;1581206;74;737;-57
2020/12/22 08:55:10;;;;;;;;;;;23.30;43.10;;;;;;1574018;74;789;-58
2020/12/22 08:57:18;;;;;;;;;;;23.40;43.20;;;;;;1581935;74;1570;-56
2020/12/22 08:59:22;;;;;;;;;;;23.30;43.20;;;;;;1574313;74;1896;-56
2020/12/22 09:01:27;;;;;;;;;;;23.40;43.20;;;;;;1582363;74;1159;-57
2020/12/22 09:03:29;;;;;;;;;;;23.30;43.30;;;;;;1569824;74;813;-59
2020/12/22 09:05:31;;;;;;;;;;;23.30;43.20;;;;;;1568931;74;689;-57
2020/12/22 09:07:33;;;;;;;;;;;23.40;43.10;;;;;;1579559;74;811;-56
2020/12/22 09:09:35;;;;;;;;;;;23.30;43.10;;;;;;1574918;74;704;-57
2020/12/22 09:11:37;;;;;;;;;;;23.30;43.10;;;;;;1576142;74;1235;-56
2020/12/22 09:13:39;;;;;;;;;;;23.30;43.10;;;;;;1579839;74;785;-58
2020/12/22 09:15:45;;;;;;;;;;;23.30;43.00;;;;;;1570665;74;731;-56
2020/12/22 09:17:47;;;;;;;;;;;23.40;43.00;;;;;;1573302;74;1933;-56
2020/12/22 09:19:50;;;;;;;;;;;23.30;43.10;;;;;;1566818;74;753;-56
2020/12/22 09:21:58;;;;;;;;;;;23.40;43.00;;;;;;1550181;74;224794;-73
2020/12/22 09:24:00;;;;;;;;;;;23.30;43.00;;;;;;1552663;75;737;-73
2020/12/22 09:26:02;;;;;;;;;;;23.30;43.00;;;;;;1554005;75;650;-73
2020/12/22 09:28:03;;;;;;;;;;;23.40;43.00;;;;;;1519221;76;1179;-73
2020/12/22 09:30:06;;;;;;;;;;;23.30;43.00;;;;;;1545458;75;767;-73
2020/12/22 09:32:09;;;;;;;;;;;23.30;43.00;;;;;;1563644;74;1189;-74
2020/12/22 09:34:10;;;;;;;;;;;23.40;42.90;;;;;;1567385;75;737;-72
2020/12/22 09:36:12;;;;;;;;;;;23.30;43.10;;;;;;1570128;74;799;-73
2020/12/22 09:38:14;;;;;;;;;;;23.30;43.20;;;;;;1570091;74;1950;-72
2020/12/22 09:40:16;;;;;;;;;;;23.40;43.20;;;;;;1568636;74;711;-73
2020/12/22 09:42:19;;;;;;;;;;;23.30;43.20;;;;;;1567037;74;1170;-72
2020/12/22 09:44:20;;;;;;;;;;;23.30;43.20;;;;;;1572224;74;808;-74
2020/12/22 09:46:22;;;;;;;;;;;23.20;43.20;;;;;;1570722;74;755;-73
2020/12/22 09:48:24;;;;;;;;;;;23.20;43.20;;;;;;1567331;74;713;-72
2020/12/22 09:50:26;;;;;;;;;;;23.20;43.20;;;;;;1568190;74;1130;-73
2020/12/22 09:52:28;;;;;;;;;;;23.20;43.20;;;;;;1567300;74;726;-72
2020/12/22 09:54:30;;;;;;;;;;;23.30;43.30;;;;;;1575210;74;963;-73
2020/12/22 09:56:32;;;;;;;;;;;23.30;43.20;;;;;;1563702;74;753;-74
2020/12/22 09:58:34;;;;;;;;;;;23.20;43.20;;;;;;1574157;74;1922;-73
2020/12/22 10:00:35;;;;;;;;;;;23.20;43.40;;;;;;1573008;74;1124;-74
2020/12/22 10:02:37;;;;;;;;;;;23.20;43.40;;;;;;1573619;74;693;-74
2020/12/22 10:04:39;;;;;;;;;;;23.20;43.50;;;;;;1565311;74;860;-70
2020/12/22 10:06:41;;;;;;;;;;;23.20;43.60;;;;;;1571721;74;757;-74
2020/12/22 10:08:43;;;;;;;;;;;23.20;43.60;;;;;;1571292;74;767;-74
2020/12/22 10:10:45;;;;;;;;;;;23.40;43.90;;;;;;1571103;75;1179;-77
2020/12/22 10:12:47;;;;;;;;;;;23.50;44.00;;;;;;1573434;74;675;-73
2020/12/22 10:14:48;;;;;;;;;;;23.60;44.00;;;;;;1567556;74;720;-70
2020/12/22 10:16:50;;;;;;;;;;;23.70;44.10;;;;;;1572482;74;858;-76
2020/12/22 10:18:52;;;;;;;;;;;23.80;43.90;;;;;;1564954;74;1953;-70
2020/12/22 10:20:54;;;;;;;;;;;23.70;43.90;;;;;;1568047;74;1118;-71
2020/12/22 10:23:00;;;;;;;;;;;23.90;44.00;;;;;;1574128;74;779;-71
2020/12/22 10:24:59;;;;;;;;;;;23.80;43.70;;;;;;1575077;74;1597;-71
2020/12/22 10:27:01;;;;;;;;;;;23.80;43.50;;;;;;1574109;74;711;-71
2020/12/22 10:29:03;;;;;;;;;;;23.90;43.40;;;;;;1584464;74;697;-71
2020/12/22 10:31:05;;;;;;;;;;;23.90;43.40;;;;;;1576778;74;1147;-72
2020/12/22 10:33:07;;;;;;;;;;;23.90;43.20;;;;;;1575878;74;769;-73
2020/12/22 10:35:09;;;;;;;;;;;24.00;43.10;;;;;;1567784;74;799;-71
2020/12/22 10:37:11;;;;;;;;;;;24.00;43.00;;;;;;1562246;74;742;-69
2020/12/22 10:39:13;;;;;;;;;;;24.00;42.80;;;;;;1570002;74;1932;-73
2020/12/22 10:41:14;;;;;;;;;;;24.20;42.90;;;;;;1565520;74;1146;-73
2020/12/22 10:43:16;;;;;;;;;;;24.10;42.80;;;;;;1573669;74;725;-70
2020/12/22 10:45:18;;;;;;;;;;;24.20;42.80;;;;;;1582597;74;728;-69
2020/12/22 10:47:20;;;;;;;;;;;24.20;42.60;;;;;;1558425;74;718;-72
2020/12/22 10:49:22;;;;;;;;;;;24.20;42.50;;;;;;1571391;74;607;-70
2020/12/22 10:51:24;;;;;;;;;;;24.20;42.40;;;;;;1568271;74;1127;-69
2020/12/22 10:53:26;;;;;;;;;;;24.30;42.30;;;;;;1562820;74;673;-70
2020/12/22 10:55:28;;;;;;;;;;;24.30;42.20;;;;;;1577404;74;697;-69
2020/12/22 10:57:29;;;;;;;;;;;24.30;42.00;;;;;;1568753;74;685;-70
2020/12/22 10:59:31;;;;;;;;;;;24.30;41.90;;;;;;1574718;74;1937;-70
2020/12/22 11:01:33;;;;;;;;;;;24.30;41.70;;;;;;1567006;74;1149;-72
2020/12/22 11:03:35;;;;;;;;;;;24.30;41.60;;;;;;1572345;74;866;-71
2020/12/22 11:07:57;;;;;;;;;;;24.30;41.50;;;;;;1567233;74;1621;-70
2020/12/22 11:09:59;;;;;;;;;;;24.40;41.50;;;;;;1562100;74;726;-70
2020/12/22 11:12:01;;;;;;;;;;;24.30;41.30;;;;;;1564551;74;1163;-69
2020/12/22 11:14:03;;;;;;;;;;;24.40;41.10;;;;;;1560503;74;806;-70
2020/12/22 11:16:07;;;;;;;;;;;24.40;41.00;;;;;;1586403;74;715;-70
2020/12/22 11:18:08;;;;;;;;;;;24.30;40.80;;;;;;1576866;74;759;-71
2020/12/22 11:20:10;;;;;;;;;;;24.30;40.70;;;;;;1585435;74;1939;-69
2020/12/22 11:22:12;;;;;;;;;;;24.30;40.60;;;;;;1582588;74;1092;-70
2020/12/22 11:24:14;;;;;;;;;;;24.30;40.50;;;;;;1585520;74;674;-72
2020/12/22 11:26:19;;;;;;;;;;;24.40;40.40;;;;;;1580092;74;724;-71
2020/12/22 11:28:21;;;;;;;;;;;24.30;40.10;;;;;;1575440;74;770;-70
2020/12/22 11:30:23;;;;;;;;;;;24.40;39.90;;;;;;1551117;75;1144;-70
2020/12/22 11:32:25;;;;;;;;;;;24.40;39.70;;;;;;1581389;74;781;-69
2020/12/22 11:34:27;;;;;;;;;;;24.40;39.60;;;;;;1590443;74;778;-70
2020/12/22 11:36:29;;;;;;;;;;;24.30;39.50;;;;;;1566232;74;890;-70
2020/12/22 11:38:31;;;;;;;;;;;24.40;39.50;;;;;;1585451;74;664;-70
2020/12/22 11:40:33;;;;;;;;;;;24.40;39.30;;;;;;1589837;74;1945;-69
2020/12/22 11:42:36;;;;;;;;;;;24.30;39.30;;;;;;1586530;74;664;-70
2020/12/22 11:44:38;;;;;;;;;;;24.40;39.20;;;;;;1576127;74;717;-72
2020/12/22 11:46:46;;;;;;;;;;;24.40;39.10;;;;;;1574979;74;789;-70
2020/12/22 11:48:50;;;;;;;;;;;24.30;39.10;;;;;;1560931;74;753;-71
2020/12/22 11:50:55;;;;;;;;;;;24.40;39.00;;;;;;1570812;74;1160;-70
2020/12/22 11:52:57;;;;;;;;;;;24.30;39.00;;;;;;1566292;74;780;-70
2020/12/22 11:54:58;;;;;;;;;;;24.30;39.00;;;;;;1562503;74;771;-71
2020/12/22 11:57:00;;;;;;;;;;;24.40;38.90;;;;;;1560071;74;901;-71
2020/12/22 11:59:02;;;;;;;;;;;24.30;38.90;;;;;;1561477;74;1960;-70
2020/12/22 12:01:04;;;;;;;;;;;24.30;38.90;;;;;;1565958;74;1145;-70
2020/12/22 12:03:06;;;;;;;;;;;24.30;38.90;;;;;;1571789;74;935;-70
2020/12/22 12:05:08;;;;;;;;;;;24.30;38.80;;;;;;1567779;74;782;-70
2020/12/22 12:07:12;;;;;;;;;;;24.40;38.80;;;;;;1576220;74;763;-69
2020/12/22 12:09:14;;;;;;;;;;;24.30;38.80;;;;;;1573066;74;682;-70
2020/12/22 12:11:16;;;;;;;;;;;24.30;38.80;;;;;;1567808;74;1156;-71
2020/12/22 12:13:18;;;;;;;;;;;24.40;38.80;;;;;;1563807;74;666;-71